createdAt,value
2018-08-18T00:02:21.021Z,58.20
2018-08-18T00:04:48.801Z,59.56
2018-08-18T00:07:16.540Z,58.71
2018-08-18T00:09:44.264Z,57.99
2018-08-18T00:12:16.426Z,57.40
2018-08-18T00:14:44.097Z,57.93
2018-08-18T00:17:11.808Z,58.44
2018-08-18T00:19:39.499Z,58.01
2018-08-18T00:22:07.171Z,57.74
2018-08-18T00:24:37.454Z,60.44
2018-08-18T00:27:05.147Z,61.31
2018-08-18T00:29:32.824Z,61.00
2018-08-18T00:32:00.521Z,60.10
2018-08-18T00:34:28.191Z,59.54
2018-08-18T00:36:55.959Z,59.02
2018-08-18T00:39:23.884Z,59.39
2018-08-18T00:41:51.670Z,59.68
2018-08-18T00:44:19.337Z,59.93
2018-08-18T00:46:46.995Z,61.08
2018-08-18T00:49:14.670Z,60.99
2018-08-18T00:51:42.349Z,59.71
2018-08-18T00:54:10.052Z,60.32
2018-08-18T00:56:39.901Z,60.75
2018-08-18T00:59:07.653Z,59.92
2018-08-18T01:01:35.357Z,59.76
2018-08-18T01:04:07.713Z,60.65
2018-08-18T01:06:37.216Z,60.17
2018-08-18T01:09:08.393Z,60.02
2018-08-18T01:11:36.211Z,60.67
2018-08-18T01:14:12.907Z,61.71
2018-08-18T01:16:46.019Z,61.06
2018-08-18T01:19:13.675Z,60.72
2018-08-18T01:21:45.865Z,62.14
2018-08-18T01:24:13.575Z,61.92
2018-08-18T01:26:41.283Z,60.76
2018-08-18T01:29:15.134Z,60.94
2018-08-18T01:31:42.812Z,60.20
2018-08-18T01:34:10.562Z,60.81
2018-08-18T01:36:38.226Z,61.05
2018-08-18T01:39:08.721Z,61.59
2018-08-18T01:41:36.665Z,61.33
2018-08-18T01:44:24.481Z,61.33
2018-08-18T01:46:53.149Z,61.62
2018-08-18T01:49:38.310Z,60.98
2018-08-18T01:52:13.295Z,61.28
2018-08-18T01:54:41.307Z,61.48
2018-08-18T01:57:09.696Z,64.34
2018-08-18T01:59:41.589Z,62.49
2018-08-18T02:02:11.351Z,65.42
2018-08-18T02:04:39.052Z,64.08
2018-08-18T02:07:15.077Z,63.07
2018-08-18T02:09:42.743Z,64.25
2018-08-18T02:12:10.406Z,63.34
2018-08-18T02:14:38.110Z,64.06
2018-08-18T02:17:15.601Z,63.92
2018-08-18T02:19:43.285Z,63.46
2018-08-18T02:22:10.968Z,63.78
2018-08-18T02:24:38.621Z,63.91
2018-08-18T02:27:06.301Z,63.48
2018-08-18T02:29:33.957Z,63.63
2018-08-18T02:32:01.626Z,64.00
2018-08-18T02:34:29.297Z,63.39
2018-08-18T02:36:57.017Z,63.59
2018-08-18T02:39:24.693Z,63.06
2018-08-18T02:41:59.185Z,63.12
2018-08-18T02:44:26.846Z,63.01
2018-08-18T02:46:54.664Z,63.23
2018-08-18T02:49:22.408Z,62.88
2018-08-18T02:51:50.069Z,62.83
2018-08-18T02:54:17.851Z,63.21
2018-08-18T02:56:45.501Z,62.90
2018-08-18T02:59:13.156Z,62.52
2018-08-18T03:01:42.203Z,61.98
2018-08-18T03:04:11.610Z,62.99
2018-08-18T03:06:39.686Z,63.68
2018-08-18T03:09:08.810Z,63.00
2018-08-18T03:11:38.832Z,63.90
2018-08-18T03:14:06.546Z,63.80
2018-08-18T03:16:35.394Z,63.31
2018-08-18T03:19:03.118Z,62.56
2018-08-18T03:21:36.305Z,62.67
2018-08-18T03:24:14.200Z,62.56
2018-08-18T03:26:47.319Z,63.12
2018-08-18T03:29:15.600Z,62.75
2018-08-18T03:31:43.682Z,62.71
2018-08-18T03:34:11.859Z,63.21
2018-08-18T03:36:42.293Z,64.55
2018-08-18T03:39:16.344Z,64.91
2018-08-18T03:41:44.283Z,63.96
2018-08-18T03:44:11.935Z,63.45
2018-08-18T03:46:39.630Z,63.42
2018-08-18T03:49:07.457Z,64.01
2018-08-18T03:51:40.654Z,65.08
2018-08-18T03:54:08.352Z,64.75
2018-08-18T03:56:36.016Z,65.25
2018-08-18T03:59:03.802Z,66.18
2018-08-18T04:01:40.321Z,66.11
2018-08-18T04:04:09.250Z,65.04
2018-08-18T04:06:38.233Z,65.64
2018-08-18T04:09:17.446Z,65.03
2018-08-18T04:11:45.104Z,64.38
2018-08-18T04:14:12.933Z,64.56
2018-08-18T04:16:45.667Z,64.23
2018-08-18T04:19:15.128Z,63.54
2018-08-18T04:21:42.821Z,63.01
2018-08-18T04:24:10.694Z,63.05
2018-08-18T04:26:38.341Z,61.81
2018-08-18T04:29:06.106Z,62.09
2018-08-18T04:31:34.745Z,61.31
2018-08-18T04:34:03.391Z,60.65
2018-08-18T04:36:31.523Z,60.66
2018-08-18T04:38:59.286Z,60.53
2018-08-18T04:41:27.031Z,60.53
2018-08-18T04:43:54.907Z,60.21
2018-08-18T04:46:22.594Z,59.67
2018-08-18T04:48:50.266Z,59.74
2018-08-18T04:51:17.938Z,60.90
2018-08-18T04:53:45.631Z,61.24
2018-08-18T04:56:13.339Z,61.49
2018-08-18T04:58:41.158Z,61.61
2018-08-18T05:01:08.850Z,61.18
2018-08-18T05:03:51.094Z,61.03
2018-08-18T05:06:23.390Z,60.35
2018-08-18T05:08:51.163Z,60.50
2018-08-18T05:11:18.773Z,60.18
2018-08-18T05:13:46.413Z,60.37
2018-08-18T05:16:14.078Z,60.28
2018-08-18T05:18:41.735Z,60.31
2018-08-18T05:21:09.453Z,60.18
2018-08-18T05:23:37.160Z,59.79
2018-08-18T05:26:04.824Z,60.15
2018-08-18T05:28:32.479Z,59.86
2018-08-18T05:31:00.158Z,60.05
2018-08-18T05:33:27.812Z,60.11
2018-08-18T05:35:55.497Z,60.22
2018-08-18T05:38:23.179Z,60.22
2018-08-18T05:40:50.846Z,60.51
2018-08-18T05:43:18.526Z,60.36
2018-08-18T05:45:46.191Z,60.19
2018-08-18T05:48:13.867Z,60.10
2018-08-18T05:50:41.556Z,60.14
2018-08-18T05:53:18.241Z,60.33
2018-08-18T05:55:46.621Z,59.54
2018-08-18T05:58:14.387Z,60.24
2018-08-18T06:00:42.125Z,59.74
2018-08-18T06:03:10.102Z,60.03
2018-08-18T06:05:37.848Z,59.96
2018-08-18T06:08:06.084Z,60.02
2018-08-18T06:10:33.741Z,60.46
2018-08-18T06:13:06.940Z,60.63
2018-08-18T06:15:34.656Z,60.30
2018-08-18T06:18:02.363Z,60.68
2018-08-18T06:20:30.025Z,60.46
2018-08-18T06:22:57.672Z,60.47
2018-08-18T06:25:25.338Z,60.31
2018-08-18T06:27:53.012Z,60.78
2018-08-18T06:30:20.753Z,60.67
2018-08-18T06:32:48.441Z,60.56
2018-08-18T06:35:16.109Z,60.63
2018-08-18T06:37:48.259Z,61.08
2018-08-18T06:40:15.944Z,60.60
2018-08-18T06:42:44.782Z,60.79
2018-08-18T06:45:14.628Z,60.75
2018-08-18T06:47:43.046Z,60.56
2018-08-18T06:50:12.698Z,60.85
2018-08-18T06:52:40.905Z,60.63
2018-08-18T06:55:13.537Z,60.34
2018-08-18T06:57:45.245Z,60.37
2018-08-18T07:00:14.673Z,59.72
2018-08-18T07:02:42.390Z,59.98
2018-08-18T07:05:12.365Z,59.83
2018-08-18T07:07:40.636Z,59.60
2018-08-18T07:10:36.196Z,60.09
2018-08-18T07:13:06.219Z,59.64
2018-08-18T07:15:35.226Z,59.36
2018-08-18T07:18:03.095Z,58.86
2018-08-18T07:20:30.854Z,59.50
2018-08-18T07:22:58.649Z,59.03
2018-08-18T07:25:26.319Z,59.19
2018-08-18T07:27:59.793Z,59.12
2018-08-18T07:30:28.533Z,59.08
2018-08-18T07:32:56.377Z,59.00
2018-08-18T07:35:24.093Z,59.02
2018-08-18T07:37:51.917Z,59.01
2018-08-18T07:40:30.144Z,60.31
2018-08-18T07:43:05.163Z,59.67
2018-08-18T07:45:33.498Z,59.14
2018-08-18T07:48:01.429Z,58.38
2018-08-18T07:50:29.050Z,58.09
2018-08-18T07:52:57.119Z,58.11
2018-08-18T07:55:24.799Z,58.38
2018-08-18T07:57:57.068Z,58.61
2018-08-18T08:00:33.529Z,58.46
2018-08-18T08:03:01.560Z,58.82
2018-08-18T08:05:29.685Z,58.38
2018-08-18T08:07:57.461Z,58.98
2018-08-18T08:10:25.274Z,57.51
2018-08-18T08:12:52.924Z,58.03
2018-08-18T08:15:20.610Z,58.10
2018-08-18T08:17:48.311Z,58.34
2018-08-18T08:20:16.807Z,58.08
2018-08-18T08:22:45.280Z,57.87
2018-08-18T08:25:12.992Z,57.64
2018-08-18T08:27:40.883Z,57.45
2018-08-18T08:30:10.447Z,56.62
2018-08-18T08:32:38.306Z,57.08
2018-08-18T08:35:06.613Z,57.34
2018-08-18T08:37:34.278Z,57.38
2018-08-18T08:40:01.961Z,56.56
2018-08-18T08:42:29.657Z,57.02
2018-08-18T08:44:57.454Z,55.63
2018-08-18T08:47:25.387Z,55.68
2018-08-18T08:49:53.092Z,56.20
2018-08-18T08:52:20.864Z,56.15
2018-08-18T08:54:48.609Z,55.85
2018-08-18T08:57:16.342Z,54.68
2018-08-18T08:59:44.018Z,54.59
2018-08-18T09:02:13.171Z,54.46
2018-08-18T09:04:40.969Z,54.83
2018-08-18T09:07:10.128Z,54.11
2018-08-18T09:09:37.864Z,53.36
2018-08-18T09:12:05.844Z,54.22
2018-08-18T09:14:33.662Z,53.84
2018-08-18T09:17:01.484Z,53.20
2018-08-18T09:19:29.212Z,52.65
2018-08-18T09:22:00.080Z,52.35
2018-08-18T09:24:29.872Z,53.20
2018-08-18T09:26:58.938Z,53.30
2018-08-18T09:29:27.781Z,52.31
2018-08-18T09:31:57.340Z,52.18
2018-08-18T09:34:25.073Z,52.27
2018-08-18T09:36:52.794Z,52.77
2018-08-18T09:39:36.948Z,52.52
2018-08-18T09:42:08.065Z,52.56
2018-08-18T09:44:41.826Z,53.03
2018-08-18T09:47:09.556Z,51.98
2018-08-18T09:49:37.233Z,52.16
2018-08-18T09:52:06.132Z,51.87
2018-08-18T09:54:33.833Z,52.16
2018-08-18T09:57:01.603Z,51.79
2018-08-18T09:59:29.679Z,51.79
2018-08-18T10:01:57.425Z,51.87
2018-08-18T10:04:25.185Z,51.18
2018-08-18T10:06:53.706Z,49.72
2018-08-18T10:09:21.521Z,51.50
2018-08-18T10:11:49.194Z,51.52
2018-08-18T10:14:17.062Z,51.69
2018-08-18T10:16:44.777Z,51.10
2018-08-18T10:19:12.472Z,51.55
2018-08-18T10:21:40.145Z,50.70
2018-08-18T10:24:08.494Z,51.09
2018-08-18T10:26:36.151Z,51.01
2018-08-18T10:29:16.379Z,51.53
2018-08-18T10:31:48.765Z,51.15
2018-08-18T10:34:18.742Z,50.99
2018-08-18T10:36:49.769Z,50.85
2018-08-18T10:39:17.521Z,50.84
2018-08-18T10:41:56.585Z,51.12
2018-08-18T10:44:24.978Z,50.98
2018-08-18T10:47:03.970Z,50.28
2018-08-18T10:49:43.365Z,49.92
2018-08-18T10:52:22.238Z,49.97
2018-08-18T10:54:49.904Z,50.81
2018-08-18T10:57:28.695Z,49.97
2018-08-18T10:59:56.396Z,50.22
2018-08-18T11:02:29.812Z,50.22
2018-08-18T11:04:57.505Z,50.05
2018-08-18T11:07:25.158Z,49.48
2018-08-18T11:09:52.812Z,50.18
2018-08-18T11:12:20.491Z,49.69
2018-08-18T11:14:53.516Z,49.77
2018-08-18T11:17:21.168Z,49.27
2018-08-18T11:19:48.847Z,49.80
2018-08-18T11:22:54.092Z,50.10
2018-08-18T11:25:25.873Z,49.85
2018-08-18T11:27:54.453Z,49.53
2018-08-18T11:30:22.427Z,49.40
2018-08-18T11:32:51.417Z,49.98
2018-08-18T11:35:19.092Z,50.34
2018-08-18T11:37:53.457Z,49.46
2018-08-18T11:40:21.901Z,50.23
2018-08-18T11:42:49.987Z,49.94
2018-08-18T11:45:18.713Z,48.52
2018-08-18T11:48:00.053Z,49.93
2018-08-18T11:50:28.244Z,49.68
2018-08-18T11:52:56.081Z,48.50
2018-08-18T11:55:23.985Z,49.31
2018-08-18T11:57:53.049Z,49.60
2018-08-18T12:00:20.887Z,48.01
2018-08-18T12:02:49.797Z,49.50
2018-08-18T12:05:17.474Z,48.58
2018-08-18T12:07:45.137Z,49.15
2018-08-18T12:10:12.809Z,48.78
2018-08-18T12:12:40.487Z,47.54
2018-08-18T12:15:08.179Z,47.92
2018-08-18T12:17:40.929Z,48.74
2018-08-18T12:20:08.606Z,48.15
2018-08-18T12:22:36.297Z,47.23
2018-08-18T12:25:04.113Z,47.59
2018-08-18T12:27:31.767Z,48.09
2018-08-18T12:29:59.496Z,47.82
2018-08-18T12:32:28.187Z,46.67
2018-08-18T12:34:57.316Z,47.71
2018-08-18T12:37:26.574Z,47.97
2018-08-18T12:39:55.197Z,47.40
2018-08-18T12:42:26.209Z,47.07
2018-08-18T12:44:54.337Z,47.30
2018-08-18T12:47:22.017Z,47.62
2018-08-18T12:49:50.178Z,47.34
2018-08-18T12:52:17.793Z,46.92
2018-08-18T12:54:45.478Z,47.70
2018-08-18T12:57:13.932Z,46.82
2018-08-18T12:59:41.670Z,47.49
2018-08-18T13:02:09.448Z,47.28
2018-08-18T13:04:37.404Z,46.52
2018-08-18T13:07:05.157Z,46.19
2018-08-18T13:09:32.808Z,47.32
2018-08-18T13:12:01.476Z,47.66
2018-08-18T13:14:30.443Z,47.49
2018-08-18T13:16:58.072Z,47.26
2018-08-18T13:19:27.678Z,46.22
2018-08-18T13:21:55.360Z,47.64
2018-08-18T13:24:23.039Z,47.20
2018-08-18T13:26:50.797Z,47.91
2018-08-18T13:29:18.466Z,47.85
2018-08-18T13:31:46.162Z,47.99
2018-08-18T13:34:16.827Z,48.77
2018-08-18T13:36:45.499Z,48.62
2018-08-18T13:39:14.490Z,48.69
2018-08-18T13:41:43.027Z,48.81
2018-08-18T13:44:10.705Z,48.19
2018-08-18T13:46:44.599Z,48.10
2018-08-18T13:49:12.291Z,48.46
2018-08-18T13:51:40.009Z,48.15
2018-08-18T13:54:07.783Z,49.24
2018-08-18T13:56:35.513Z,48.18
2018-08-18T13:59:03.309Z,49.40
2018-08-18T14:01:35.642Z,49.56
2018-08-18T14:04:03.774Z,49.25
2018-08-18T14:06:37.697Z,49.58
2018-08-18T14:09:06.203Z,49.34
2018-08-18T14:11:33.877Z,50.27
2018-08-18T14:14:01.640Z,50.07
2018-08-18T14:16:30.329Z,50.04
2018-08-18T14:18:58.146Z,49.72
2018-08-18T14:21:25.817Z,49.56
2018-08-18T14:23:53.467Z,49.85
2018-08-18T14:26:21.140Z,50.33
2018-08-18T14:28:48.804Z,49.51
2018-08-18T14:31:16.561Z,49.77
2018-08-18T14:33:44.218Z,49.87
2018-08-18T14:36:13.946Z,50.23
2018-08-18T14:38:43.230Z,49.88
2018-08-18T14:41:11.282Z,50.21
2018-08-18T14:43:40.117Z,50.42
2018-08-18T14:46:10.338Z,50.68
2018-08-18T14:48:38.230Z,50.61
2018-08-18T14:51:06.191Z,50.38
2018-08-18T14:53:33.952Z,51.10
2018-08-18T14:56:01.617Z,51.01
2018-08-18T14:58:33.261Z,50.57
2018-08-18T15:01:06.554Z,50.99
2018-08-18T15:03:34.630Z,51.07
2018-08-18T15:06:02.309Z,51.15
2018-08-18T15:08:30.012Z,50.92
2018-08-18T15:10:57.672Z,50.88
2018-08-18T15:13:25.321Z,51.09
2018-08-18T15:15:53.050Z,50.38
2018-08-18T15:18:20.832Z,50.81
2018-08-18T15:20:48.527Z,51.05
2018-08-18T15:23:17.117Z,50.94
2018-08-18T15:25:45.701Z,50.72
2018-08-18T15:28:14.537Z,51.66
2018-08-18T15:30:44.515Z,51.46
2018-08-18T15:33:16.414Z,51.66
2018-08-18T15:35:44.173Z,51.69
2018-08-18T15:38:12.121Z,51.78
2018-08-18T15:40:40.149Z,51.50
2018-08-18T15:43:07.953Z,51.33
2018-08-18T15:45:59.397Z,51.59
2018-08-18T15:48:27.227Z,51.47
2018-08-18T15:50:54.977Z,51.65
2018-08-18T15:53:56.578Z,51.75
2018-08-18T15:56:25.219Z,52.53
2018-08-18T15:58:53.920Z,52.33
2018-08-18T16:01:23.781Z,51.93
2018-08-18T16:03:52.035Z,52.31
2018-08-18T16:06:19.755Z,52.73
2018-08-18T16:08:47.491Z,53.22
2018-08-18T16:11:15.753Z,52.93
2018-08-18T16:13:43.561Z,52.67
2018-08-18T16:16:11.281Z,53.50
2018-08-18T16:18:38.966Z,52.88
2018-08-18T16:21:13.163Z,53.82
2018-08-18T16:23:41.693Z,54.48
2018-08-18T16:26:10.317Z,55.18
2018-08-18T16:28:38.725Z,56.71
2018-08-18T16:31:06.737Z,55.87
2018-08-18T16:33:34.701Z,56.22
2018-08-18T16:36:02.463Z,56.77
2018-08-18T16:38:30.475Z,57.95
2018-08-18T16:40:58.177Z,57.43
2018-08-18T16:43:25.885Z,57.26
2018-08-18T16:45:53.557Z,58.41
2018-08-18T16:48:21.297Z,59.56
2018-08-18T16:50:49.025Z,58.95
2018-08-18T16:53:16.715Z,59.48
2018-08-18T16:55:45.471Z,58.84
2018-08-18T16:58:13.290Z,59.47
2018-08-18T17:00:58.379Z,60.15
2018-08-18T17:03:33.513Z,59.13
2018-08-18T17:06:02.510Z,61.80
2018-08-18T17:08:30.594Z,61.21
2018-08-18T17:10:58.619Z,62.83
2018-08-18T17:13:31.045Z,62.71
2018-08-18T17:15:58.788Z,61.92
2018-08-18T17:18:26.517Z,62.08
2018-08-18T17:20:59.121Z,62.90
2018-08-18T17:23:28.365Z,63.25
2018-08-18T17:25:56.029Z,63.62
2018-08-18T17:28:23.715Z,63.99
2018-08-18T17:30:52.167Z,64.56
2018-08-18T17:33:21.829Z,65.05
2018-08-18T17:35:49.838Z,65.43
2018-08-18T17:38:17.565Z,64.33
2018-08-18T17:40:45.520Z,65.25
2018-08-18T17:43:13.224Z,64.02
2018-08-18T17:45:50.333Z,65.01
2018-08-18T17:48:18.080Z,66.06
2018-08-18T17:50:45.805Z,64.83
2018-08-18T17:53:13.512Z,66.80
2018-08-18T17:55:41.346Z,66.19
2018-08-18T17:58:09.030Z,67.31
2018-08-18T18:00:36.889Z,66.91
2018-08-18T18:03:06.769Z,67.92
2018-08-18T18:05:34.622Z,68.62
2018-08-18T18:08:03.605Z,67.06
2018-08-18T18:10:32.709Z,68.34
2018-08-18T18:13:00.497Z,68.40
2018-08-18T18:15:35.575Z,67.08
2018-08-18T18:18:03.498Z,67.17
2018-08-18T18:20:32.358Z,69.75
2018-08-18T18:23:00.249Z,70.69
2018-08-18T18:25:28.138Z,69.04
2018-08-18T18:27:55.856Z,68.80
2018-08-18T18:30:27.208Z,70.58
2018-08-18T18:32:55.222Z,71.52
2018-08-18T18:35:23.713Z,71.39
2018-08-18T18:37:51.828Z,70.06
2018-08-18T18:40:19.547Z,69.53
2018-08-18T18:42:47.359Z,69.35
2018-08-18T18:45:15.140Z,71.82
2018-08-18T18:47:45.014Z,70.24
2018-08-18T18:50:16.511Z,69.36
2018-08-18T18:52:44.401Z,69.88
2018-08-18T18:55:12.126Z,69.83
2018-08-18T18:57:52.545Z,69.37
2018-08-18T19:00:20.250Z,70.14
2018-08-18T19:02:47.987Z,70.68
2018-08-18T19:05:22.362Z,70.90
2018-08-18T19:08:13.921Z,71.22
2018-08-18T19:10:41.908Z,71.97
2018-08-18T19:13:10.058Z,71.80
2018-08-18T19:15:37.769Z,71.34
2018-08-18T19:18:06.143Z,71.81
2018-08-18T19:20:33.867Z,72.11
2018-08-18T19:23:08.959Z,72.01
2018-08-18T19:25:37.860Z,71.52
2018-08-18T19:28:05.637Z,71.32
2018-08-18T19:30:33.967Z,71.68
2018-08-18T19:33:01.889Z,72.83
2018-08-18T19:35:35.105Z,71.78
2018-08-18T19:38:03.892Z,71.64
2018-08-18T19:40:31.842Z,72.24
2018-08-18T19:42:59.583Z,72.67
2018-08-18T19:45:27.258Z,74.64
2018-08-18T19:47:54.925Z,72.24
2018-08-18T19:50:22.657Z,72.18
2018-08-18T19:52:55.954Z,72.71
2018-08-18T19:55:23.618Z,71.80
2018-08-18T19:57:51.274Z,70.84
2018-08-18T20:00:19.982Z,72.16
2018-08-18T20:03:05.398Z,71.63
2018-08-18T20:05:33.095Z,71.56
2018-08-18T20:08:00.785Z,72.22
2018-08-18T20:10:28.517Z,71.16
2018-08-18T20:12:56.183Z,70.40
2018-08-18T20:15:23.855Z,71.50
2018-08-18T20:17:51.506Z,71.34
2018-08-18T20:20:21.573Z,71.35
2018-08-18T20:22:49.339Z,71.14
2018-08-18T20:25:17.022Z,70.76
2018-08-18T20:27:44.668Z,70.60
2018-08-18T20:30:13.166Z,71.47
2018-08-18T20:32:40.823Z,71.08
2018-08-18T20:35:08.585Z,72.50
2018-08-18T20:37:36.364Z,72.10
2018-08-18T20:40:05.441Z,73.00
2018-08-18T20:42:38.948Z,72.75
2018-08-18T20:45:06.805Z,71.81
2018-08-18T20:47:34.505Z,71.92
2018-08-18T20:50:02.174Z,72.62
2018-08-18T20:52:29.835Z,71.56
2018-08-18T20:54:58.246Z,73.35
2018-08-18T20:57:25.933Z,72.51
2018-08-18T20:59:53.611Z,71.74
2018-08-18T21:02:21.292Z,71.82
2018-08-18T21:04:57.317Z,73.97
2018-08-18T21:07:25.249Z,72.26
2018-08-18T21:09:53.789Z,73.22
2018-08-18T21:12:21.510Z,71.87
2018-08-18T21:14:49.169Z,71.94
2018-08-18T21:17:16.838Z,71.67
2018-08-18T21:19:44.508Z,71.57
2018-08-18T21:22:13.389Z,73.51
2018-08-18T21:24:41.094Z,74.20
2018-08-18T21:27:08.749Z,74.59
2018-08-18T21:29:36.413Z,73.12
2018-08-18T21:32:04.238Z,72.18
2018-08-18T21:34:38.443Z,73.19
2018-08-18T21:37:06.457Z,73.34
2018-08-18T21:39:34.164Z,73.11
2018-08-18T21:42:01.896Z,74.13
2018-08-18T21:44:29.579Z,73.96
2018-08-18T21:46:57.265Z,74.42
2018-08-18T21:49:24.930Z,75.85
2018-08-18T21:51:52.658Z,74.85
2018-08-18T21:54:20.302Z,73.87
2018-08-18T21:56:47.979Z,73.58
2018-08-18T21:59:15.624Z,73.89
2018-08-18T22:01:43.450Z,73.12
2018-08-18T22:04:11.125Z,73.18
2018-08-18T22:06:38.882Z,74.91
2018-08-18T22:09:20.193Z,73.66
2018-08-18T22:11:47.935Z,74.74
2018-08-18T22:14:16.601Z,73.75
2018-08-18T22:16:58.985Z,73.55
2018-08-18T22:19:27.921Z,74.23
2018-08-18T22:21:55.672Z,73.92
2018-08-18T22:24:23.606Z,74.03
2018-08-18T22:26:51.414Z,74.23
2018-08-18T22:29:22.903Z,73.23
2018-08-18T22:31:50.876Z,73.79
2018-08-18T22:34:18.549Z,74.38
2018-08-18T22:36:46.302Z,72.98
2018-08-18T22:39:14.033Z,72.72
2018-08-18T22:41:42.671Z,72.84
2018-08-18T22:44:10.358Z,72.55
2018-08-18T22:46:38.134Z,72.60
2018-08-18T22:49:05.966Z,73.47
2018-08-18T22:51:33.787Z,73.87
2018-08-18T22:54:01.502Z,73.97
2018-08-18T22:56:36.357Z,72.87
2018-08-18T22:59:06.787Z,72.94
2018-08-18T23:01:36.567Z,72.91
2018-08-18T23:04:13.455Z,73.83
2018-08-18T23:06:41.150Z,72.82
2018-08-18T23:09:08.814Z,72.76
2018-08-18T23:11:36.482Z,73.82
2018-08-18T23:14:04.160Z,73.56
2018-08-18T23:16:31.880Z,72.82
2018-08-18T23:18:59.523Z,74.76
2018-08-18T23:21:28.019Z,73.43
2018-08-18T23:23:55.824Z,73.57
2018-08-18T23:26:23.655Z,73.89
2018-08-18T23:28:51.309Z,73.72
2018-08-18T23:31:18.966Z,74.06
2018-08-18T23:33:46.633Z,73.91
2018-08-18T23:36:14.291Z,73.54
2018-08-18T23:38:48.341Z,72.95
2018-08-18T23:41:16.163Z,72.51
2018-08-18T23:43:43.870Z,73.22
2018-08-18T23:46:11.571Z,72.83
2018-08-18T23:48:39.251Z,72.51
2018-08-18T23:51:06.969Z,71.96
2018-08-18T23:53:34.639Z,71.48
2018-08-18T23:56:02.307Z,72.22
2018-08-18T23:58:30.317Z,72.41
